18ème Rallye National Terre de Langres
Championnat de France des Rallyes sur Terre
1 4 MAURIN Julien/URAL Olivier Citroën DS3 WRC A 8W 6:26,3 93km/h 1
2 2 DURBEC Thibault/RENUCCI Jacques-Julien Citroën DS3 WRC A 8W 6:30,1 +00:03,8 +00:03,8 1
3 5 TRON Noel/OBRECHT Justine Citroën DS3 WRC A 8W 6:30,2 +00:03,9 +00:00,1 1
4 7 FERAUD Cyrille/DUCHEMIN Aymeric Citroën C4 WRC FA 8W 6:40,3 +00:14,0 +00:10,1 1
5 9 AMOURETTE Marc/MARIE Gwenola Citroën DS3 R5 R 5 6:40,5 +00:14,2 +00:00,2
6 3 CUOQ Jean-Marie/GRANDEMANGE Marielle Citroën C4 WRC FA 8W 6:48,7 +00:22,4 +00:08,2 1
7 6 BAUD Lionel/SERRE Pascal Ford Focus WRC FA 8W 6:53,5 +00:27,2 +00:04,8 1
8 1 BERFA Jordan/AUGUSTIN Damien HUYNDAI i20 R5 R 5 6:54,7 +00:28,4 +00:01,2 1
9 8 MORDACQ Arnaud/RATIER Marie-Noelle Mitsubishi Lancer Evo9 FN 4 7:08,3 +00:42,0 +00:13,6 1
10 14 CECCHI Philippe/LETOURNEAU Lara Citroën DS3 R5 R 5 7:10,6 +00:44,3 +00:02,3
11 67 MARCHAL Eddy/JOLE Damien Citroën Saxo T4 FA 6K 7:13,2 +00:46,9 +00:02,6 1
12 16 PELUTTIERO Thibaud/REICHENECKER Josh Mitsubishi Lancer EvoX R 4 7:15,0 +00:48,7 +00:01,8 1
13 23 BENIER Thomas/PRASSE Cédric Subaru Impreza WRX N 4 7:22,8 +00:56,5 +00:07,8 1
14 25 MOREL Jean-Luc/GIDEL Philippe Subaru Impreza WRX FN 4 7:23,5 +00:57,2 +00:00,7
15 39 MASCLAUX Arnaud/MOULIN Alexandre Renault Clio Ragnotti F2 14 7:23,6 +00:57,3 +00:00,1 1 2
16 17 CLARETY Jérôme/LACOSTE Vincent Mitsubishi Lancer EvoX R 4 7:24,6 +00:58,3 +00:01,0
17 31 COLNEY Thierry/FORTMANN Patrick Citroën DS3 R3 R 3 7:28,1 +01:01,8 +00:03,5 1 2
18 19 CHAYNES Gary/TRIBOUT Christian Mitsubishi Lancer Evo6 FA 8 7:28,6 +01:02,3 +00:00,5 1
19 66 CACHOD Sylvain/POURCELOT Aurélien Citroën C2 R2 R 2 7:33,9 +01:07,6 +00:05,3
20 24 MARTI Christian/LAVIALE Jean-Marc Mitsubishi Lancer Evo9 FN 4 7:34,2 +01:07,9 +00:00,3 1
21 54 MARGAILLAN Hugo/POUJOL Sébastien Ford Fiesta R2J R 2 7:35,5 +01:09,2 +00:01,3 4
22 26 DELOY David/OGIER Cédric Mitsubishi Lancer EvoX N 4 7:35,8 +01:09,5 +00:00,3
23 18 SALIN Daniel/SALIN Brigitte Subaru Impreza WRX R 4 7:37,0 +01:10,7 +00:01,2
24 38 JULIA David/AUBERTIN Ludovic Peugeot 206 Rc F2 14 7:37,4 +01:11,1 +00:00,4 1 2
25 78 RAYNAUD Gabriel/JULIEN William Seat Ibiza GTI F2 14 7:38,1 +01:11,8 +00:00,7 1 2
26 63 MOLLARD Alexandre/EYMIN Nicolas Peugeot 208 VTI R 2 7:38,4 +01:12,1 +00:00,3
27 42 FRANCESCHI Jean-Baptiste/COURBON Romain Ford Fiesta R2J R 2 7:38,8 +01:12,5 +00:00,4 4
28 40 VITAL Jean-Pierre/YVERNAULT Eric Citroën Saxo VTS F2 13 7:39,1 +01:12,8 +00:00,3 1 2
29 62 CHALAL Theo/LE FLOCH Franck Ford Fiesta R2J R 2 7:39,8 +01:13,5 +00:00,7 4
30 20 GAIDOZ Hervé/RICHARD François Subaru Impreza WRX FA 8 7:40,7 +01:14,4 +00:00,9 1
31 48 JOUINES Jean/CHABBERT Martin Ford Fiesta R2J R 2 7:43,9 +01:17,6 +00:03,2 4
32 57 CARTIER Victor/CRAEN Fabien Ford Fiesta R2J R 2 7:44,2 +01:17,9 +00:00,3 4
33 61 CORNU Alexandre/FASSOLA Thibault Ford Fiesta R2J R 2 7:44,6 +01:18,3 +00:00,4 4
34 30 ASTIER Loïc/DECLERCK Loïc Citroën DS3 R3 R 3 7:45,9 +01:19,6 +00:01,3 1 2
35 88 BRISSON Eddy/MASSON Pascal Suzuki Swift Sport FN 2 7:46,0 +01:19,7 +00:00,1
36 47 CHANTRIAUX Audric/PEREZ Laëtitia Ford Fiesta R2J R 2 7:46,9 +01:20,6 +00:00,9 4
37 65 FRANCESCHI Mathieu/BELHACENE Matthieu Citroën C2 R2 R 2 7:47,0 +01:20,7 +00:00,1
38 37 GUINCHARD Emmanuel/CHATELAIN Mickaël Peugeot 207 Rc R 3 7:47,6 +01:21,3 +00:00,6
39 43 DI FANTE Romain/TEMPIER Romain Ford Fiesta R2J R 2 7:48,6 +01:22,3 +00:01,0 4
40 35 FRANCE Julien/MAZARGUIL Philippe Citroën DS3 R3 R 3 7:49,5 +01:23,2 +00:00,9
41 44 BOULENC Benjamin/DOS REIS Sébastien Ford Fiesta R2J R 2 7:50,0 +01:23,7 +00:00,5 4
42 64 GUIBERT Jean-Christophe/GRACIAL Laurent Ford Fiesta R2 R 2 7:50,6 +01:24,3 +00:00,6
43 52 GIUSTI Igor/DINI Gilbert Ford Fiesta R2J R 2 7:51,7 +01:25,4 +00:01,1 4
44 51 MOUSTIN Doriann/DESNOYER Alexia Ford Fiesta R2J R 2 7:52,8 +01:26,5 +00:01,1 4
45 69 QUARROZ Damien/VOLPI Cécile Citroën Saxo T4 FA 6K 7:54,6 +01:28,3 +00:01,8
46 12 BESSON Jean-Pascal/ROISSAC Patrice Skoda Fabia R5 R 5 7:57,0 +01:30,7 +00:02,4 1
47 85 GERMAIN Alex/POIROT Edgard Peugeot 205 GTI F2 13 7:59,0 +01:32,7 +00:02,0
48 41 SABATIER Florent/SANTIAGO Thomas Peugeot 106 S16 FA 6 7:59,1 +01:32,8 +00:00,1 1 2
49 71 COLOMBE Geoffroy/FABREGUE Régis Peugeot 206 XS FA 6K 8:00,7 +01:34,4 +00:01,6
50 68 PAILLER Julien/HENQUINET Sébastien Citroën Saxo T4 FA 6K 8:01,2 +01:34,9 +00:00,5
51 90 BERTHOD Loïc/JOSSERAND Alexis Citroën Saxo VTS FN 2 8:01,2 +01:34,9
52 55 PONTAL Julien/BARRAL Florian Ford Fiesta R2J R 2 8:01,5 +01:35,2 +00:00,3 4
53 60 EMANUEL Maxence/DALMASSO Pauline Ford Fiesta R2J R 2 8:03,7 +01:37,4 +00:02,2 4
54 49 GOUPIL Jocerand/CIANFARANI Anthoni Ford Fiesta R2J R 2 8:03,9 +01:37,6 +00:00,2 4
55 45 FOURMAUX Adrien/FOURMAUX Maxime Ford Fiesta R2J R 2 8:04,6 +01:38,3 +00:00,7 4
56 32 JOUINES Rémi/MAHEO Arnaud Peugeot 207 Rc R 3 8:05,2 +01:38,9 +00:00,6 1 2
57 84 FOURNIER Nicolas/VATTEAU Kévin Peugeot 206 XS F2 13 8:10,7 +01:44,4 +00:05,5 1 2
58 28 VIALLE Lilian/GHIRARDELLO Manuel Renault Clio R3 R 3 8:14,2 +01:47,9 +00:03,5 1 2
59 74 TATIN Xavier/BAUMET Eddie Peugeot 306 S16 FA 7 8:14,3 +01:48,0 +00:00,1
60 53 GANDELLI David/BIAGETTI Loan Ford Fiesta R2J R 2 8:14,9 +01:48,6 +00:00,6 4
61 82 DUCLAUX Julien/AMALBERTI Cédric Peugeot 206 Rc FN 3 8:16,2 +01:49,9 +00:01,3
62 75 LAGIER Fabrice/DUPONT Romuald Peugeot 306 S16 FA 7 8:20,6 +01:54,3 +00:04,4
63 94 VUITTENEZ Victorien/COTE COLISSON Maxime Peugeot 106 XSI FN 1 8:22,2 +01:55,9 +00:01,6
64 33 BOUCHET Guillaume/BLAMPEY Fabien Peugeot 207 Rc R 3 8:22,6 +01:56,3 +00:00,4
65 50 CURIOZ Benjamin/BEERENS Pierre Ford Fiesta R2J R 2 8:26,1 +01:59,8 +00:03,5 4
66 87 MOUGIN Jules/ROUMETTE Clemence Peugeot 106 Rallye FA 5 8:28,8 +02:02,5 +00:02,7
67 29 DAZY Jean-Pierre/LOIZEAUX Didier Renault Clio R3 R 3 8:28,8 +02:02,5 1 2
68 27 PRIOLO Laurent/PRIOLO Cindy Mitsubishi Lancer Evo9 FN 4 8:29,8 +02:03,5 +00:01,0
69 80 REYNAUD Yvan/SCHWARTZ Eric Opel Manta GTE F2 14 8:30,4 +02:04,1 +00:00,6
70 56 VIAROUGE David/BENZAL Aurélien Ford Fiesta R2J R 2 8:31,1 +02:04,8 +00:00,7 4
71 77 STUDER Maude/STUDER Sébastien Peugeot 206 GT FA 7 8:33,2 +02:06,9 +00:02,1
72 36 SPART Patrick/CATTIN Charline Peugeot 207 Rc R 3 8:33,5 +02:07,2 +00:00,3
73 70 BRENIAUX Sébastien/JACQUES Anthony Peugeot 206 XS FA 6K 8:40,5 +02:14,2 +00:07,0
74 89 DOLGOPYATOFF Damien/PERRIN Christelle Suzuki Swift Sport FN 2 8:45,0 +02:18,7 +00:04,5
75 11 FRAU Richard/GAREL Romain Ford Fiesta R5 R 5 8:46,8 +02:20,5 +00:01,8 1
76 79 CLEMENT Frédéric/COSTES François Peugeot 206 Rc F2 14 8:50,2 +02:23,9 +00:03,4 1 2
77 72 FETY Fabrice/ROLLION Thomas Peugeot 206 XS FA 6K 8:56,8 +02:30,5 +00:06,6
78 58 VIANO Allison/CHOL Cecilia Ford Fiesta R2J R 2 9:01,7 +02:35,4 +00:04,9 4
79 81 VIDAL Marc/MONTARON Loïc Peugeot 309 GTI 16S F2 14 9:03,9 +02:37,6 +00:02,2
80 92 FRANCOIS Léa/FRANCOIS Solene Peugeot 106 S16 FN 2 9:07,6 +02:41,3 +00:03,7
81 95 FAUR Yoann/MASSON Kévin Peugeot 205 Rallye FN 1 9:13,8 +02:47,5 +00:06,2
82 76 VERRY Vanessa/OUVRY Eleonore Peugeot 206 Rc FA 7 9:16,0 +02:49,7 +00:02,2
83 86 MAUVAIS Michel/PY Jean-Michel Peugeot 205 Rallye FA 5 9:16,1 +02:49,8 +00:00,1
84 22 GLEY Jean-Pierre/JEUDY Nicolas B.M.W. 325 iX FA 8 9:45,9 +03:19,6 +00:29,8
85 91 DI PAOLO Alain/MORILLON Frederika Peugeot 106 S16 FN 2 9:58,1 +03:31,8 +00:12,2
86 93 BRAQUET Jean-Baptiste/BRAQUET Elyse Peugeot 106 XSI FN 1 10:09,2 +03:42,9 +00:11,1
87 73 SOUFFEZ Frédéric/PRUVOST Astrid Peugeot 206 Rc FA 7 12:36,8 +06:10,5 +02:27,6 1 2
88 15 FALCO Jean-Marc/BOUERI Jonathan Mitsubishi Lancer Evo9 R 4 16:27,1 +10:00,8 +03:50,3 1
Clt Equipage Voiture Gr/Cl Temps Ecart 1er Ecart préc. Catégories
Commentaires: © PatricK Soft  
(Temps forfaitaires=couleur bleue)
Classés:88

Epreuve: Groupe: Catégorie:

 
Retour
Classement ES2-Saints-Geosmes - Noidant-le-Rocheux (10.000 km)